Time;durP1;ratioP1;P1;durP2;ratioP2;P2;SDS_P1;SDS_P2;PMS_P1;PMS_P2;Temp;Humidity;BMP_temperature;BMP_pressure;BME280_temperature;BME280_humidity;BME280_pressure;Samples;Min_cycle;Max_cycle;Signal;HPM_P1;HPM_P2
2023/01/15 00:01:35;;;;;;;22.80;21.90;;;21.60;58.30;;;;;;5032382;28;20953;-52
2023/01/15 00:04:04;;;;;;;23.00;22.10;;;21.60;58.50;;;;;;5022631;28;20446;-52
2023/01/15 00:06:32;;;;;;;24.00;23.00;;;21.50;58.60;;;;;;5031506;28;20505;-53
2023/01/15 00:08:59;;;;;;;23.97;22.97;;;21.40;58.70;;;;;;5031792;28;20912;-53
2023/01/15 00:11:26;;;;;;;23.50;22.60;;;21.40;58.90;;;;;;5031765;28;20481;-55
2023/01/15 00:13:53;;;;;;;24.00;23.00;;;21.30;59.00;;;;;;5031567;28;20965;-55
2023/01/15 00:16:22;;;;;;;24.27;23.37;;;21.30;59.10;;;;;;5031742;28;20469;-56
2023/01/15 00:18:55;;;;;;;24.40;23.40;;;21.20;59.20;;;;;;5031659;28;20976;-53
2023/01/15 00:21:23;;;;;;;23.60;22.70;;;21.20;59.40;;;;;;5031697;28;20456;-52
2023/01/15 00:29:21;;;;;;;24.20;23.30;;;21.10;59.60;;;;;;5031612;28;20484;-53
2023/01/15 00:31:54;;;;;;;24.60;23.60;;;21.10;59.80;;;;;;5031929;28;20463;-53
2023/01/15 00:34:23;;;;;;;24.53;23.50;;;21.00;59.80;;;;;;5031898;28;20481;-53
2023/01/15 00:36:50;;;;;;;23.67;22.77;;;21.00;59.90;;;;;;5031663;28;20457;-53
2023/01/15 00:39:17;;;;;;;24.40;23.50;;;20.90;60.00;;;;;;5031550;28;20538;-52
2023/01/15 00:41:44;;;;;;;24.07;23.13;;;20.90;60.20;;;;;;5031737;28;20605;-55
2023/01/15 00:44:11;;;;;;;23.63;22.73;;;20.90;60.40;;;;;;5031557;28;20449;-53
2023/01/15 00:46:38;;;;;;;24.80;23.83;;;20.90;60.50;;;;;;5031774;28;20563;-52
2023/01/15 00:49:06;;;;;;;24.30;23.40;;;20.80;60.60;;;;;;5031477;28;20511;-56
2023/01/15 00:51:35;;;;;;;24.03;23.03;;;20.80;60.70;;;;;;5031548;28;20496;-52
2023/01/15 00:54:03;;;;;;;23.70;22.70;;;20.80;60.80;;;;;;5031637;28;20456;-52
2023/01/15 00:56:30;;;;;;;23.60;22.70;;;20.70;60.80;;;;;;5031431;28;21009;-57
2023/01/15 00:58:59;;;;;;;23.90;23.00;;;20.70;61.00;;;;;;5031586;28;20463;-52
2023/01/15 01:01:26;;;;;;;23.50;22.60;;;20.70;61.10;;;;;;5031528;28;21019;-53
2023/01/15 01:03:52;;;;;;;23.50;22.50;;;20.70;61.10;;;;;;5031473;28;20481;-53
2023/01/15 01:06:20;;;;;;;25.10;24.10;;;20.70;61.20;;;;;;5031298;28;20504;-53
2023/01/15 01:08:49;;;;;;;24.03;23.13;;;20.70;61.20;;;;;;5031256;28;21034;-54
2023/01/15 01:11:18;;;;;;;24.60;23.60;;;20.60;61.30;;;;;;5031308;28;20445;-52
2023/01/15 01:13:46;;;;;;;25.50;24.40;;;20.60;61.30;;;;;;5031452;28;20473;-54
2023/01/15 01:16:23;;;;;;;24.70;23.70;;;20.60;61.40;;;;;;5031303;28;20496;-55
2023/01/15 01:18:50;;;;;;;24.07;23.13;;;20.60;61.60;;;;;;5034643;28;20895;-52
2023/01/15 01:21:17;;;;;;;25.17;24.17;;;20.50;61.60;;;;;;5035003;28;20476;-54
2023/01/15 01:23:44;;;;;;;25.23;24.13;;;20.50;61.70;;;;;;5035070;28;20499;-55
2023/01/15 01:26:13;;;;;;;25.50;24.40;;;20.50;61.80;;;;;;5034943;28;20592;-52
2023/01/15 01:28:40;;;;;;;24.77;23.77;;;20.50;62.00;;;;;;5034908;28;20555;-51
2023/01/15 01:31:08;;;;;;;24.43;23.43;;;20.50;62.00;;;;;;5034841;28;20531;-56
2023/01/15 01:33:35;;;;;;;24.80;23.90;;;20.50;62.20;;;;;;5034659;28;20476;-52
2023/01/15 01:36:02;;;;;;;24.33;23.33;;;20.50;62.20;;;;;;5034653;28;20504;-54
2023/01/15 01:38:29;;;;;;;24.60;23.40;;;20.50;62.30;;;;;;5034826;28;20469;-53
2023/01/15 01:40:56;;;;;;;23.00;22.10;;;20.40;62.30;;;;;;5034231;28;20477;-55
2023/01/15 01:43:27;;;;;;;22.90;21.90;;;20.40;62.40;;;;;;5034584;28;20532;-55
2023/01/15 01:45:54;;;;;;;23.13;22.13;;;20.40;62.50;;;;;;5034677;28;20480;-53
2023/01/15 01:48:25;;;;;;;23.00;22.10;;;20.40;62.50;;;;;;5034340;28;20480;-52
2023/01/15 01:50:56;;;;;;;23.73;22.80;;;20.30;62.50;;;;;;5034211;28;20857;-52
2023/01/15 01:53:26;;;;;;;23.87;22.87;;;20.30;62.70;;;;;;5034760;28;20488;-54
2023/01/15 01:55:55;;;;;;;24.40;23.40;;;20.30;62.80;;;;;;5034286;28;20508;-53
2023/01/15 01:58:27;;;;;;;24.00;23.00;;;20.30;62.90;;;;;;5034246;28;20482;-53
2023/01/15 02:00:54;;;;;;;24.97;23.97;;;20.30;62.90;;;;;;5034049;28;20947;-54
2023/01/15 02:03:26;;;;;;;23.93;22.97;;;20.30;63.00;;;;;;5034197;28;20532;-52
2023/01/15 02:05:56;;;;;;;24.10;23.10;;;20.30;63.00;;;;;;5034151;28;20501;-54
2023/01/15 02:08:23;;;;;;;23.73;22.73;;;20.30;62.90;;;;;;5034078;28;20484;-55
2023/01/15 02:10:53;;;;;;;24.30;23.30;;;20.30;63.00;;;;;;5033941;28;20480;-52
2023/01/15 02:13:32;;;;;;;24.00;23.10;;;20.20;63.00;;;;;;5034095;28;20543;-54
2023/01/15 02:16:03;;;;;;;24.33;23.43;;;20.20;63.10;;;;;;5034082;28;20469;-52
2023/01/15 02:18:40;;;;;;;24.23;23.23;;;20.20;63.10;;;;;;5034036;28;20485;-53
2023/01/15 02:21:13;;;;;;;23.90;23.00;;;20.20;63.20;;;;;;5034089;28;20480;-53
2023/01/15 02:24:01;;;;;;;23.90;23.00;;;20.20;63.30;;;;;;5034383;28;21016;-52
2023/01/15 02:26:54;;;;;;;24.30;23.30;;;20.10;63.30;;;;;;5034168;28;20548;-52
2023/01/15 02:29:29;;;;;;;24.00;23.00;;;20.10;63.50;;;;;;5033510;28;20513;-53
2023/01/15 02:31:57;;;;;;;23.50;22.50;;;20.10;63.50;;;;;;5033901;28;20448;-53
2023/01/15 02:34:27;;;;;;;24.50;23.50;;;20.10;63.70;;;;;;5033915;28;20483;-54
2023/01/15 02:37:01;;;;;;;23.87;22.87;;;20.10;63.70;;;;;;5033727;28;20943;-53
2023/01/15 02:39:30;;;;;;;24.23;23.33;;;20.10;63.60;;;;;;5013710;28;20529;-53
2023/01/15 02:42:01;;;;;;;24.90;23.70;;;20.10;63.70;;;;;;5013701;28;20473;-52
2023/01/15 02:44:30;;;;;;;24.20;23.23;;;20.10;63.80;;;;;;5013613;28;20474;-53
2023/01/15 02:46:59;;;;;;;24.30;23.00;;;20.10;63.70;;;;;;5013963;28;20481;-51
2023/01/15 02:49:26;;;;;;;25.23;24.13;;;20.10;63.80;;;;;;5013311;28;20510;-52
2023/01/15 02:51:57;;;;;;;24.20;23.20;;;20.10;64.50;;;;;;5013507;28;20928;-54
2023/01/15 02:54:27;;;;;;;24.87;23.87;;;20.10;63.90;;;;;;5013556;28;20482;-52
2023/01/15 02:56:57;;;;;;;24.53;23.53;;;20.00;63.80;;;;;;5013466;28;20482;-52
2023/01/15 02:59:29;;;;;;;24.70;23.60;;;20.00;63.90;;;;;;5013299;28;20865;-56
2023/01/15 03:02:00;;;;;;;24.50;23.60;;;20.00;63.80;;;;;;5013809;28;20449;-53
2023/01/15 03:04:32;;;;;;;26.03;24.93;;;20.00;63.90;;;;;;5013432;28;20482;-55
2023/01/15 03:07:05;;;;;;;24.63;23.53;;;20.00;63.90;;;;;;5013620;28;21029;-56
2023/01/15 03:09:33;;;;;;;25.40;24.30;;;20.00;64.00;;;;;;5013048;28;20492;-52
2023/01/15 03:12:06;;;;;;;26.27;25.27;;;20.00;64.10;;;;;;5013389;28;20481;-52
2023/01/15 03:14:39;;;;;;;26.00;25.00;;;20.00;64.90;;;;;;5013361;28;20533;-52
2023/01/15 03:17:15;;;;;;;25.43;24.43;;;20.00;64.30;;;;;;5013511;28;20537;-52
2023/01/15 03:19:46;;;;;;;25.33;24.30;;;20.00;64.10;;;;;;5012976;28;20484;-54
2023/01/15 03:22:19;;;;;;;25.47;24.47;;;20.00;64.10;;;;;;5013306;28;20477;-52
2023/01/15 03:24:50;;;;;;;24.70;23.70;;;20.00;64.20;;;;;;5013500;28;20549;-51
2023/01/15 03:27:18;;;;;;;25.00;24.10;;;19.90;64.20;;;;;;5032572;28;20488;-52
2023/01/15 03:29:50;;;;;;;24.60;23.70;;;19.90;64.30;;;;;;5032588;28;20865;-55
2023/01/15 03:32:18;;;;;;;25.50;24.47;;;19.90;64.40;;;;;;5032902;28;20480;-52
2023/01/15 03:34:51;;;;;;;25.30;24.30;;;19.90;64.40;;;;;;5032916;28;20465;-52
2023/01/15 03:37:19;;;;;;;24.17;23.27;;;19.90;64.30;;;;;;5032783;28;20445;-56
2023/01/15 03:39:47;;;;;;;24.00;23.10;;;19.90;64.40;;;;;;5031767;28;20503;-55
2023/01/15 03:42:26;;;;;;;24.20;23.30;;;19.90;64.50;;;;;;5032932;28;20495;-51
2023/01/15 03:45:02;;;;;;;24.57;23.57;;;19.90;64.60;;;;;;5032412;28;20564;-51
2023/01/15 03:47:42;;;;;;;24.80;23.80;;;19.90;64.50;;;;;;5032768;28;20483;-56
2023/01/15 03:50:17;;;;;;;24.87;23.77;;;19.90;65.40;;;;;;5032101;28;20578;-52
2023/01/15 03:52:48;;;;;;;24.87;23.87;;;19.90;64.60;;;;;;5032308;28;20524;-54
2023/01/15 03:55:18;;;;;;;24.17;23.07;;;19.90;64.60;;;;;;5032516;28;20496;-54
2023/01/15 03:57:50;;;;;;;24.27;23.30;;;19.90;64.50;;;;;;5032476;28;20476;-53
2023/01/15 04:00:25;;;;;;;24.47;23.57;;;19.90;64.50;;;;;;5032336;28;20473;-51
2023/01/15 04:02:53;;;;;;;25.47;24.43;;;19.90;64.50;;;;;;5032163;28;20472;-53
2023/01/15 04:05:21;;;;;;;24.93;23.93;;;19.80;65.20;;;;;;5032291;28;20504;-54
2023/01/15 04:07:49;;;;;;;24.73;23.63;;;19.90;64.70;;;;;;5032209;28;20447;-52
2023/01/15 04:10:17;;;;;;;24.43;23.43;;;19.80;64.60;;;;;;5031878;28;20483;-52
2023/01/15 04:12:44;;;;;;;25.40;24.30;;;19.80;64.60;;;;;;5032324;28;20532;-52
2023/01/15 04:15:11;;;;;;;25.40;24.40;;;19.80;64.70;;;;;;5031476;28;20464;-56
2023/01/15 04:17:39;;;;;;;26.00;24.57;;;19.90;64.70;;;;;;5031728;28;20453;-54
2023/01/15 04:20:07;;;;;;;27.40;26.40;;;19.80;64.70;;;;;;5031625;28;20536;-55
2023/01/15 04:22:35;;;;;;;27.80;26.60;;;19.90;64.80;;;;;;5032131;28;20445;-54
2023/01/15 04:25:02;;;;;;;28.30;27.10;;;19.90;64.70;;;;;;5031684;28;20473;-54
2023/01/15 04:27:28;;;;;;;27.30;26.00;;;19.90;64.70;;;;;;5032081;28;20453;-55
2023/01/15 04:29:55;;;;;;;27.80;26.70;;;19.80;64.60;;;;;;5031293;28;20572;-54
2023/01/15 04:32:22;;;;;;;27.53;26.43;;;19.80;64.60;;;;;;5031747;28;20452;-52
2023/01/15 04:34:50;;;;;;;26.10;25.10;;;19.80;64.50;;;;;;5031448;28;20461;-54
2023/01/15 04:37:17;;;;;;;26.57;25.47;;;19.90;64.70;;;;;;5031432;28;21009;-52
2023/01/15 04:39:44;;;;;;;26.37;25.33;;;19.80;64.40;;;;;;5031155;28;20437;-53
2023/01/15 04:44:57;;;;;;;26.90;25.80;;;19.80;64.40;;;;;;5031733;28;20464;-54
2023/01/15 04:47:24;;;;;;;26.53;25.53;;;19.80;64.60;;;;;;5031582;28;20958;-52
2023/01/15 04:49:52;;;;;;;26.80;25.70;;;19.80;64.50;;;;;;5031772;28;20491;-54
2023/01/15 04:52:19;;;;;;;26.40;25.37;;;19.90;64.70;;;;;;5034609;28;20474;-55
2023/01/15 04:54:46;;;;;;;26.10;25.10;;;19.90;64.60;;;;;;5034918;28;20456;-52
2023/01/15 04:57:13;;;;;;;26.47;25.37;;;19.90;64.60;;;;;;5035395;28;20536;-52
2023/01/15 04:59:40;;;;;;;26.70;25.60;;;19.80;64.50;;;;;;5035143;28;20440;-57
2023/01/15 05:02:07;;;;;;;26.87;25.87;;;19.90;64.70;;;;;;5035374;28;20441;-52
2023/01/15 05:04:34;;;;;;;27.63;26.17;;;19.80;64.50;;;;;;5034992;28;20441;-55
2023/01/15 05:07:03;;;;;;;26.83;25.73;;;19.90;64.60;;;;;;5035303;28;20796;-53
2023/01/15 05:09:30;;;;;;;28.30;27.10;;;19.80;64.50;;;;;;5034960;28;20487;-54
2023/01/15 05:11:57;;;;;;;28.87;27.77;;;19.80;64.40;;;;;;5035199;28;20445;-53
2023/01/15 05:14:24;;;;;;;27.90;26.80;;;19.80;64.50;;;;;;5034728;28;20536;-54
2023/01/15 05:16:51;;;;;;;28.77;27.57;;;19.80;64.40;;;;;;5035056;28;20459;-55
2023/01/15 05:19:18;;;;;;;28.60;27.50;;;19.80;64.50;;;;;;5034757;28;20539;-54
2023/01/15 05:21:45;;;;;;;29.30;28.20;;;19.80;64.50;;;;;;5034926;28;20878;-53
2023/01/15 05:24:15;;;;;;;27.60;26.60;;;19.80;64.30;;;;;;5035008;28;20527;-53
2023/01/15 05:26:42;;;;;;;28.83;27.73;;;19.80;64.30;;;;;;5035119;28;20456;-52
2023/01/15 05:29:10;;;;;;;27.60;26.60;;;19.80;64.40;;;;;;5034559;28;20964;-53
2023/01/15 05:31:37;;;;;;;27.87;26.77;;;19.80;64.30;;;;;;5034925;28;20448;-55
2023/01/15 05:34:04;;;;;;;27.00;25.90;;;19.80;64.40;;;;;;5034623;28;20448;-52
2023/01/15 05:36:32;;;;;;;27.97;26.87;;;19.80;64.50;;;;;;5034810;28;21166;-53
2023/01/15 05:39:00;;;;;;;27.70;26.60;;;19.80;64.50;;;;;;5034603;28;20449;-53
2023/01/15 05:44:14;;;;;;;28.27;27.07;;;19.80;64.60;;;;;;5034681;28;20444;-52
2023/01/15 05:46:43;;;;;;;28.50;27.40;;;19.80;64.70;;;;;;5034842;28;20842;-51
2023/01/15 05:49:12;;;;;;;27.43;26.43;;;19.80;64.60;;;;;;5033997;28;20536;-51
2023/01/15 05:51:40;;;;;;;28.63;27.40;;;19.80;64.80;;;;;;5034481;28;20964;-53
2023/01/15 05:54:10;;;;;;;28.47;27.37;;;19.80;64.70;;;;;;5034123;28;20969;-52
2023/01/15 05:56:39;;;;;;;28.60;27.40;;;19.80;64.60;;;;;;5034193;28;20465;-52
2023/01/15 05:59:07;;;;;;;27.87;26.67;;;19.80;64.70;;;;;;5033764;28;20441;-52
2023/01/15 06:01:34;;;;;;;27.33;26.10;;;19.70;64.50;;;;;;5033669;28;20442;-51
2023/01/15 06:04:02;;;;;;;27.80;26.40;;;19.70;64.50;;;;;;5033198;28;20445;-51
2023/01/15 06:06:30;;;;;;;26.77;25.67;;;19.80;64.60;;;;;;5033952;28;20856;-55
2023/01/15 06:08:57;;;;;;;27.03;26.03;;;19.70;65.10;;;;;;5034724;28;20533;-55
2023/01/15 06:11:24;;;;;;;27.40;26.30;;;19.80;64.60;;;;;;5041035;28;20485;-55
2023/01/15 06:13:52;;;;;;;27.40;25.97;;;19.80;64.60;;;;;;5041694;28;20938;-54
2023/01/15 06:16:19;;;;;;;29.10;28.00;;;19.70;64.50;;;;;;5041349;28;20461;-55
2023/01/15 06:18:46;;;;;;;26.80;25.80;;;19.70;64.60;;;;;;5041108;28;20452;-55
2023/01/15 06:21:14;;;;;;;27.80;26.70;;;19.80;64.70;;;;;;5041651;28;20528;-57
2023/01/15 06:23:42;;;;;;;27.70;26.60;;;19.70;64.50;;;;;;5040770;28;20456;-51
2023/01/15 06:26:12;;;;;;;27.87;26.67;;;19.70;64.50;;;;;;5033042;28;20479;-51
2023/01/15 06:28:39;;;;;;;28.30;27.10;;;19.70;64.50;;;;;;5033841;28;20515;-51
2023/01/15 06:31:09;;;;;;;27.57;26.57;;;19.70;64.50;;;;;;5032852;28;20476;-51
2023/01/15 06:33:36;;;;;;;27.23;26.23;;;19.70;64.40;;;;;;5033522;28;20456;-53
2023/01/15 06:36:04;;;;;;;26.83;25.70;;;19.70;64.30;;;;;;5033025;28;20465;-51
2023/01/15 06:38:31;;;;;;;25.50;24.50;;;19.70;64.50;;;;;;5033406;28;20445;-53
2023/01/15 06:40:59;;;;;;;26.10;25.00;;;19.70;64.50;;;;;;5033293;28;20445;-52
2023/01/15 06:48:56;;;;;;;24.97;23.97;;;19.70;64.50;;;;;;5033274;28;20452;-51
2023/01/15 06:51:23;;;;;;;25.80;24.70;;;19.70;64.60;;;;;;5033163;28;20511;-52
2023/01/15 06:53:50;;;;;;;26.50;25.20;;;19.70;64.70;;;;;;5033234;28;20457;-51
2023/01/15 06:56:17;;;;;;;25.93;24.83;;;19.70;64.80;;;;;;5033069;28;20473;-51
2023/01/15 06:58:44;;;;;;;24.97;23.87;;;19.70;64.90;;;;;;5032945;28;20816;-53
2023/01/15 07:01:14;;;;;;;26.60;25.60;;;19.70;64.90;;;;;;5032571;28;20943;-51
2023/01/15 07:03:41;;;;;;;27.30;26.20;;;19.80;65.30;;;;;;5033135;28;20441;-52
2023/01/15 07:06:11;;;;;;;27.07;25.97;;;19.70;65.40;;;;;;5032535;28;20512;-52
2023/01/15 07:08:38;;;;;;;25.83;24.80;;;19.70;65.20;;;;;;5033151;28;20519;-51
2023/01/15 07:11:07;;;;;;;25.63;24.53;;;19.70;65.20;;;;;;5032330;28;20481;-52
2023/01/15 07:13:34;;;;;;;25.90;24.90;;;19.70;65.20;;;;;;5032760;28;20441;-53
2023/01/15 07:16:03;;;;;;;29.03;27.93;;;19.70;65.30;;;;;;5032231;28;20884;-53
2023/01/15 07:18:33;;;;;;;27.93;26.83;;;19.80;65.30;;;;;;5032547;28;20943;-52
2023/01/15 07:21:00;;;;;;;27.60;26.50;;;19.70;65.20;;;;;;5031895;28;20448;-52
2023/01/15 07:23:28;;;;;;;27.40;26.40;;;19.70;65.10;;;;;;5032716;28;20862;-51
2023/01/15 07:25:55;;;;;;;27.50;26.47;;;19.70;65.20;;;;;;5031985;28;20469;-52
2023/01/15 07:28:23;;;;;;;27.03;26.03;;;19.70;65.20;;;;;;5032246;28;20539;-52
2023/01/15 07:30:50;;;;;;;26.90;25.80;;;19.70;65.00;;;;;;5031877;28;20488;-51
2023/01/15 07:33:17;;;;;;;27.43;26.40;;;19.70;65.00;;;;;;5032065;28;20499;-51
2023/01/15 07:35:45;;;;;;;27.00;25.90;;;19.70;65.10;;;;;;5032198;28;20513;-52
2023/01/15 07:38:12;;;;;;;29.10;28.10;;;19.70;65.10;;;;;;5031898;28;20951;-52
2023/01/15 07:40:39;;;;;;;29.37;28.27;;;19.70;65.10;;;;;;5031937;28;20445;-52
2023/01/15 07:51:17;;;;;;;28.93;27.63;;;19.70;64.80;;;;;;5031930;28;20479;-52
2023/01/15 07:53:44;;;;;;;29.13;28.03;;;19.70;64.90;;;;;;5032113;28;20484;-54
2023/01/15 07:56:11;;;;;;;29.30;28.20;;;19.70;64.90;;;;;;5031624;28;20877;-52
2023/01/15 07:58:38;;;;;;;29.97;28.67;;;19.70;64.90;;;;;;5031897;28;20475;-51
2023/01/15 08:01:05;;;;;;;29.33;28.23;;;19.70;64.70;;;;;;5031541;28;20889;-51
2023/01/15 08:03:32;;;;;;;29.63;28.53;;;19.70;64.60;;;;;;5031760;28;20524;-51
2023/01/15 08:05:59;;;;;;;29.50;28.40;;;19.70;64.50;;;;;;5031664;28;20547;-54
2023/01/15 08:08:27;;;;;;;29.80;28.60;;;19.70;64.40;;;;;;5031613;28;20897;-51
2023/01/15 08:16:24;;;;;;;28.73;27.53;;;19.70;64.40;;;;;;5031604;28;20463;-51
2023/01/15 08:18:51;;;;;;;27.93;26.83;;;19.60;64.40;;;;;;5031328;28;20544;-52
2023/01/15 08:21:18;;;;;;;27.67;26.47;;;19.70;64.50;;;;;;5031119;28;20437;-52
2023/01/15 08:23:49;;;;;;;27.40;26.30;;;19.70;64.60;;;;;;5031786;28;20445;-52
2023/01/15 08:26:16;;;;;;;28.17;27.07;;;19.70;64.80;;;;;;5034213;28;20846;-51
2023/01/15 08:28:43;;;;;;;28.20;27.10;;;19.70;64.90;;;;;;5038582;28;20451;-51
2023/01/15 08:31:10;;;;;;;29.73;27.50;;;19.60;64.70;;;;;;5037397;28;20570;-53
2023/01/15 08:33:37;;;;;;;28.70;27.57;;;19.60;64.60;;;;;;5038043;28;20528;-51
2023/01/15 08:36:04;;;;;;;27.93;26.93;;;19.60;64.60;;;;;;5037831;28;20472;-54
2023/01/15 08:38:31;;;;;;;26.83;25.83;;;19.60;64.60;;;;;;5037926;28;20528;-53
2023/01/15 08:40:59;;;;;;;26.43;25.33;;;19.60;64.50;;;;;;5037488;28;20445;-52
2023/01/15 08:43:27;;;;;;;26.70;25.60;;;19.60;64.40;;;;;;5018342;28;20445;-52
2023/01/15 08:45:56;;;;;;;26.57;25.57;;;19.60;64.30;;;;;;5034493;28;20476;-51
2023/01/15 08:48:23;;;;;;;26.67;25.67;;;19.60;64.50;;;;;;5022640;28;20950;-52
2023/01/15 08:50:50;;;;;;;28.47;27.17;;;19.60;64.60;;;;;;5037446;28;20485;-51
2023/01/15 08:53:18;;;;;;;27.80;26.50;;;19.60;64.60;;;;;;5038000;28;20861;-52
2023/01/15 08:55:46;;;;;;;29.30;28.10;;;19.60;65.30;;;;;;5037596;28;20496;-51
2023/01/15 08:58:15;;;;;;;29.40;28.20;;;19.60;64.40;;;;;;5038087;28;20531;-53
2023/01/15 09:00:42;;;;;;;27.93;26.87;;;19.60;64.30;;;;;;5037602;28;20453;-51
2023/01/15 09:03:09;;;;;;;28.40;27.30;;;19.60;64.40;;;;;;5037375;28;20539;-53
2023/01/15 09:05:37;;;;;;;26.93;25.93;;;19.60;64.30;;;;;;5037765;28;20556;-51
2023/01/15 09:08:04;;;;;;;29.50;28.30;;;19.60;64.20;;;;;;5037908;28;20448;-52
2023/01/15 09:10:31;;;;;;;27.50;26.40;;;19.60;64.30;;;;;;5037327;28;20445;-51
2023/01/15 09:12:59;;;;;;;28.70;26.40;;;19.60;64.30;;;;;;5037949;28;20451;-51
2023/01/15 09:15:28;;;;;;;28.80;27.60;;;19.60;65.00;;;;;;5037283;28;20460;-51
2023/01/15 09:17:56;;;;;;;26.63;25.43;;;19.60;64.10;;;;;;5037769;28;20452;-52
2023/01/15 09:20:23;;;;;;;26.90;25.80;;;19.60;64.10;;;;;;5036287;28;20451;-51
2023/01/15 09:22:50;;;;;;;27.30;26.30;;;19.60;64.00;;;;;;5037763;28;20539;-52
2023/01/15 09:25:18;;;;;;;27.70;26.70;;;19.60;64.00;;;;;;5037414;28;20471;-54
2023/01/15 09:27:45;;;;;;;28.27;27.17;;;19.60;64.00;;;;;;5037656;28;20460;-52
2023/01/15 09:30:16;;;;;;;28.70;27.60;;;19.60;63.90;;;;;;5037278;28;20449;-52
2023/01/15 09:32:45;;;;;;;28.73;27.63;;;19.60;63.90;;;;;;5037465;28;21053;-52
2023/01/15 09:35:12;;;;;;;27.77;26.60;;;19.60;64.00;;;;;;5037119;28;20469;-52
2023/01/15 09:37:38;;;;;;;27.50;26.40;;;19.60;64.00;;;;;;5035024;28;20447;-51
2023/01/15 09:40:08;;;;;;;28.00;26.90;;;19.60;64.10;;;;;;5034131;28;20449;-53
2023/01/15 09:42:45;;;;;;;26.80;25.70;;;19.60;64.20;;;;;;5034332;28;20955;-50
2023/01/15 09:45:21;;;;;;;27.33;26.20;;;19.60;64.30;;;;;;5034049;28;20472;-57
2023/01/15 09:48:10;;;;;;;28.20;27.10;;;19.70;64.00;;;;;;5033989;28;20455;-60
2023/01/15 09:50:49;;;;;;;27.90;26.70;;;19.80;63.70;;;;;;5025581;28;20480;-57
2023/01/15 09:53:42;;;;;;;28.03;27.03;;;19.90;63.70;;;;;;5034519;28;20480;-56
2023/01/15 09:56:19;;;;;;;28.50;27.03;;;19.90;63.40;;;;;;5034117;28;20472;-59
2023/01/15 09:58:46;;;;;;;28.10;26.83;;;20.00;63.10;;;;;;5034489;28;20449;-60
2023/01/15 10:01:18;;;;;;;32.20;29.47;;;20.00;63.10;;;;;;5034620;28;20449;-63
2023/01/15 10:03:50;;;;;;;28.17;27.07;;;20.10;63.30;;;;;;5034933;28;20959;-58
2023/01/15 10:06:22;;;;;;;30.07;28.33;;;20.20;63.20;;;;;;5034283;28;20480;-64
2023/01/15 10:08:50;;;;;;;28.27;27.00;;;20.20;62.40;;;;;;5033864;28;20449;-58
2023/01/15 10:14:42;;;;;;;28.30;27.20;;;20.30;62.00;;;;;;5034312;28;20432;-63
2023/01/15 10:17:20;;;;;;;28.47;27.20;;;20.30;61.60;;;;;;5033425;28;20445;-60
2023/01/15 10:19:49;;;;;;;27.33;26.17;;;20.40;61.50;;;;;;5033187;28;20441;-60
2023/01/15 10:22:28;;;;;;;28.33;27.30;;;20.40;61.20;;;;;;5033770;28;20480;-56
2023/01/15 10:24:57;;;;;;;29.73;28.63;;;20.40;60.80;;;;;;5033379;28;20467;-57
2023/01/15 10:27:26;;;;;;;27.80;26.80;;;20.50;60.70;;;;;;5033571;28;20476;-61
2023/01/15 10:30:01;;;;;;;29.00;27.90;;;20.50;60.30;;;;;;5033196;28;20808;-60
2023/01/15 10:32:39;;;;;;;29.17;28.07;;;20.60;59.90;;;;;;5033041;28;20476;-62
2023/01/15 10:35:31;;;;;;;28.40;27.40;;;20.60;59.70;;;;;;5033107;28;20500;-60
2023/01/15 10:38:06;;;;;;;28.70;27.60;;;20.60;59.50;;;;;;5031507;28;20824;-59
2023/01/15 10:40:51;;;;;;;28.90;27.70;;;20.60;59.20;;;;;;5033053;28;20449;-61
2023/01/15 10:43:24;;;;;;;30.20;28.60;;;20.70;59.50;;;;;;5033028;28;20449;-62
2023/01/15 10:45:55;;;;;;;31.90;29.50;;;20.80;59.70;;;;;;5032953;28;20473;-61
2023/01/15 10:48:29;;;;;;;31.83;29.93;;;20.90;60.60;;;;;;5013706;28;20965;-61
2023/01/15 10:51:02;;;;;;;33.63;31.10;;;20.90;63.30;;;;;;5029720;28;20454;-56
2023/01/15 10:53:35;;;;;;;33.10;31.00;;;20.90;65.60;;;;;;5032975;28;20484;-56
2023/01/15 10:56:13;;;;;;;33.90;31.10;;;20.90;67.50;;;;;;5032646;28;20974;-60
2023/01/15 10:58:46;;;;;;;31.80;30.10;;;20.80;68.80;;;;;;5029134;28;20453;-62
2023/01/15 11:01:22;;;;;;;32.90;30.37;;;20.90;69.80;;;;;;5022818;28;20495;-63
2023/01/15 11:03:54;;;;;;;32.60;30.47;;;20.90;69.50;;;;;;5032469;28;20441;-59
2023/01/15 11:06:25;;;;;;;33.00;31.00;;;20.90;68.30;;;;;;5031634;28;20488;-55
2023/01/15 11:08:54;;;;;;;33.23;30.50;;;20.90;69.00;;;;;;5032132;28;20481;-59
2023/01/15 11:20:03;;;;;;;24.00;22.13;;;20.90;68.60;;;;;;5031275;28;21136;-57
2023/01/15 11:22:31;;;;;;;25.30;23.50;;;21.00;67.40;;;;;;5032799;28;20289;-56
2023/01/15 11:25:02;;;;;;;24.00;22.70;;;21.10;66.20;;;;;;5032457;28;20523;-56
2023/01/15 11:27:32;;;;;;;24.73;23.33;;;21.10;65.00;;;;;;5032497;28;20441;-56
2023/01/15 11:30:01;;;;;;;24.43;23.33;;;21.10;64.20;;;;;;5032317;28;20446;-57
2023/01/15 11:32:30;;;;;;;24.73;23.20;;;21.10;63.30;;;;;;5032411;28;20481;-55
2023/01/15 11:34:59;;;;;;;24.23;22.93;;;21.10;62.60;;;;;;5032396;28;20468;-56
2023/01/15 11:37:27;;;;;;;24.00;22.87;;;21.10;61.90;;;;;;5032385;28;20476;-56
2023/01/15 11:39:59;;;;;;;24.00;22.60;;;21.00;61.40;;;;;;5032178;28;20452;-54
2023/01/15 11:50:53;;;;;;;23.60;22.37;;;20.90;59.40;;;;;;5036133;28;20540;-57
2023/01/15 11:53:22;;;;;;;23.60;22.50;;;20.90;59.20;;;;;;5036526;28;20476;-58
2023/01/15 11:56:01;;;;;;;22.93;21.83;;;20.80;58.70;;;;;;5036783;28;20496;-56
2023/01/15 11:58:32;;;;;;;23.50;22.40;;;20.80;58.40;;;;;;5035233;28;21037;-56
2023/01/15 12:01:00;;;;;;;24.00;23.07;;;20.80;58.10;;;;;;5035607;28;20448;-61
2023/01/15 12:03:30;;;;;;;22.73;21.83;;;20.80;58.10;;;;;;5037186;28;20457;-57
2023/01/15 12:06:01;;;;;;;23.80;22.50;;;20.70;57.80;;;;;;5037339;28;21000;-55
2023/01/15 12:08:45;;;;;;;23.17;22.20;;;20.70;57.70;;;;;;5036888;28;20444;-56
2023/01/15 12:11:27;;;;;;;22.47;21.57;;;20.70;57.60;;;;;;5036547;28;20477;-56
2023/01/15 12:14:07;;;;;;;23.13;22.23;;;20.70;57.40;;;;;;5036802;28;20448;-59
2023/01/15 12:16:40;;;;;;;22.90;21.97;;;20.70;57.20;;;;;;5037083;28;20469;-59
2023/01/15 12:19:17;;;;;;;23.00;22.10;;;20.70;57.10;;;;;;5036284;28;20488;-57
2023/01/15 12:22:08;;;;;;;21.83;21.03;;;20.60;57.00;;;;;;5036810;28;20440;-59
2023/01/15 12:24:58;;;;;;;23.40;22.20;;;20.60;56.90;;;;;;5037243;28;20569;-57
2023/01/15 12:27:45;;;;;;;21.80;21.00;;;20.60;56.70;;;;;;5038030;28;20520;-58
2023/01/15 12:30:23;;;;;;;22.53;21.73;;;20.60;56.70;;;;;;5036433;28;20444;-56
2023/01/15 12:32:55;;;;;;;22.43;21.53;;;20.60;56.60;;;;;;5037823;28;20494;-58
2023/01/15 12:35:29;;;;;;;22.10;21.20;;;20.50;56.50;;;;;;5037945;28;20469;-56
2023/01/15 12:38:00;;;;;;;22.60;21.63;;;20.50;56.40;;;;;;5038292;28;20445;-57
2023/01/15 12:40:33;;;;;;;23.33;22.30;;;20.60;56.50;;;;;;5038086;28;20445;-58
2023/01/15 12:45:49;;;;;;;22.70;21.80;;;20.60;56.30;;;;;;5038211;28;20572;-58
2023/01/15 12:48:21;;;;;;;22.73;21.83;;;20.60;56.20;;;;;;5037955;28;20492;-57
2023/01/15 12:50:50;;;;;;;22.67;21.67;;;20.60;56.20;;;;;;5038279;28;20471;-56
2023/01/15 12:53:21;;;;;;;22.63;21.73;;;20.60;56.10;;;;;;5037584;28;20549;-57
2023/01/15 12:55:53;;;;;;;22.63;21.73;;;20.60;56.10;;;;;;5037182;28;20464;-58
2023/01/15 12:58:40;;;;;;;22.10;21.20;;;20.60;56.00;;;;;;5037972;28;20528;-56
2023/01/15 13:01:13;;;;;;;22.40;21.60;;;20.60;55.90;;;;;;5037257;28;20452;-56
2023/01/15 13:03:51;;;;;;;21.70;20.90;;;20.60;55.70;;;;;;5038483;28;20791;-54
2023/01/15 13:06:19;;;;;;;23.57;22.57;;;20.60;55.50;;;;;;5038125;28;20475;-59
2023/01/15 13:08:55;;;;;;;22.70;21.90;;;20.70;55.50;;;;;;5037799;28;20449;-61
2023/01/15 13:11:22;;;;;;;22.17;21.20;;;20.60;55.30;;;;;;5038393;28;20445;-56
2023/01/15 13:13:57;;;;;;;22.70;21.80;;;20.60;55.20;;;;;;5040297;28;20441;-55
2023/01/15 13:16:36;;;;;;;23.93;23.00;;;20.60;55.00;;;;;;5040676;28;20476;-52
2023/01/15 13:19:23;;;;;;;23.80;22.90;;;20.60;55.10;;;;;;5037296;28;20472;-55
2023/01/15 13:21:54;;;;;;;22.87;22.07;;;20.60;55.00;;;;;;5034890;28;20454;-52
2023/01/15 13:24:37;;;;;;;22.90;21.90;;;20.60;54.80;;;;;;5034934;28;20475;-56
2023/01/15 13:27:23;;;;;;;22.50;21.60;;;20.60;54.80;;;;;;5034956;28;20894;-57
2023/01/15 13:30:05;;;;;;;23.00;22.10;;;20.60;54.70;;;;;;5034548;28;20451;-54
2023/01/15 13:32:35;;;;;;;22.30;21.50;;;20.50;54.60;;;;;;5034525;28;21005;-57
2023/01/15 13:35:07;;;;;;;21.90;21.10;;;20.50;54.60;;;;;;5034758;28;20522;-57
2023/01/15 13:37:40;;;;;;;22.20;21.40;;;20.50;54.60;;;;;;5034664;28;20499;-56